createdAt,value
2023-01-27T00:00:53.441Z,45.80
2023-01-27T00:03:24.643Z,41.13
2023-01-27T00:05:51.911Z,44.00
2023-01-27T00:08:18.870Z,40.10
2023-01-27T00:10:46.224Z,37.90
2023-01-27T00:13:32.044Z,52.00
2023-01-27T00:15:59.560Z,42.83
2023-01-27T00:18:26.638Z,39.43
2023-01-27T00:21:12.845Z,41.90
2023-01-27T00:23:58.048Z,39.20
2023-01-27T00:26:25.267Z,40.83
2023-01-27T00:28:52.324Z,45.87
2023-01-27T00:31:38.127Z,44.03
2023-01-27T00:34:11.311Z,47.27
2023-01-27T00:36:41.455Z,48.83
2023-01-27T00:39:10.460Z,50.27
2023-01-27T00:41:39.472Z,51.57
2023-01-27T00:44:07.426Z,49.03
2023-01-27T00:46:34.920Z,49.23
2023-01-27T00:49:01.996Z,53.03
2023-01-27T00:51:30.935Z,51.53
2023-01-27T00:53:59.315Z,52.37
2023-01-27T00:56:28.227Z,52.07
2023-01-27T00:58:55.725Z,52.70
2023-01-27T01:01:23.680Z,46.57
2023-01-27T01:03:50.930Z,48.53
2023-01-27T01:06:19.513Z,50.47
2023-01-27T01:08:48.778Z,47.43
2023-01-27T01:11:17.472Z,43.60
2023-01-27T01:13:45.214Z,45.90
2023-01-27T01:16:13.850Z,46.47
2023-01-27T01:18:41.990Z,48.27
2023-01-27T01:21:09.944Z,43.23
2023-01-27T01:23:42.188Z,44.43
2023-01-27T01:26:11.426Z,46.57
2023-01-27T01:28:38.607Z,45.47
2023-01-27T01:31:09.164Z,39.43
2023-01-27T01:33:36.863Z,40.80
2023-01-27T01:36:11.805Z,41.90
2023-01-27T01:38:38.907Z,45.73
2023-01-27T01:41:08.294Z,43.17
2023-01-27T01:43:35.329Z,41.03
2023-01-27T01:46:03.334Z,94.57
2023-01-27T01:49:03.605Z,143.17
2023-01-27T01:51:41.175Z,54.20
2023-01-27T01:54:28.346Z,45.90
2023-01-27T01:57:02.764Z,47.30
2023-01-27T01:59:36.288Z,41.03
2023-01-27T02:02:07.264Z,44.20
2023-01-27T02:04:38.962Z,43.93
2023-01-27T02:07:22.691Z,51.20
2023-01-27T02:09:52.275Z,44.13
2023-01-27T02:12:19.813Z,49.60
2023-01-27T02:14:46.790Z,45.90
2023-01-27T02:17:14.835Z,48.83
2023-01-27T02:19:54.449Z,47.53
2023-01-27T02:22:33.985Z,39.90
2023-01-27T02:25:11.437Z,43.10
2023-01-27T02:27:38.875Z,42.87
2023-01-27T02:30:06.416Z,42.97
2023-01-27T02:32:34.747Z,48.50
2023-01-27T02:35:02.041Z,45.43
2023-01-27T02:37:30.695Z,43.40
2023-01-27T02:39:58.347Z,47.27
2023-01-27T02:42:25.703Z,46.30
2023-01-27T02:44:52.655Z,79.77
2023-01-27T02:47:20.636Z,79.57
2023-01-27T02:49:47.642Z,134.27
2023-01-27T02:52:15.167Z,91.23
2023-01-27T02:54:42.141Z,61.30
2023-01-27T02:57:09.505Z,49.73
2023-01-27T02:59:47.517Z,55.63
2023-01-27T03:02:14.952Z,46.17
2023-01-27T03:04:42.092Z,50.83
2023-01-27T03:07:09.320Z,42.43
2023-01-27T03:09:36.322Z,44.07
2023-01-27T03:12:21.894Z,42.77
2023-01-27T03:15:08.817Z,41.57
2023-01-27T03:17:56.276Z,45.00
2023-01-27T03:20:23.447Z,42.23
2023-01-27T03:22:50.735Z,42.63
2023-01-27T03:25:20.362Z,45.37
2023-01-27T03:27:48.268Z,43.63
2023-01-27T03:30:38.765Z,45.03
2023-01-27T03:33:14.200Z,47.80
2023-01-27T03:36:21.322Z,46.63
2023-01-27T03:39:09.552Z,45.30
2023-01-27T03:41:55.386Z,46.07
2023-01-27T03:44:44.680Z,45.47
2023-01-27T03:47:11.668Z,42.23
2023-01-27T03:49:39.092Z,41.07
2023-01-27T03:52:06.022Z,43.80
2023-01-27T03:54:33.263Z,42.80
2023-01-27T03:57:06.020Z,44.53
2023-01-27T03:59:35.192Z,47.10
2023-01-27T04:02:21.199Z,44.30
2023-01-27T04:05:07.028Z,43.07
2023-01-27T04:07:37.345Z,39.00
2023-01-27T04:10:05.743Z,40.40
2023-01-27T04:12:32.828Z,42.70
2023-01-27T04:15:00.143Z,45.17
2023-01-27T04:17:27.171Z,42.23
2023-01-27T04:19:54.390Z,39.23
2023-01-27T04:22:21.927Z,42.57
2023-01-27T04:24:50.247Z,110.20
2023-01-27T04:27:18.948Z,41.53
2023-01-27T04:29:46.196Z,42.70
2023-01-27T04:32:13.803Z,39.87
2023-01-27T04:34:41.955Z,37.80
2023-01-27T04:37:09.645Z,42.50
2023-01-27T04:39:37.193Z,38.57
2023-01-27T04:42:04.624Z,41.03
2023-01-27T04:44:31.969Z,41.53
2023-01-27T04:46:59.080Z,39.13
2023-01-27T04:49:27.185Z,43.60
2023-01-27T04:51:55.156Z,37.83
2023-01-27T04:54:22.427Z,39.90
2023-01-27T04:56:58.477Z,47.07
2023-01-27T04:59:25.905Z,59.97
2023-01-27T05:01:52.983Z,57.33
2023-01-27T05:04:20.356Z,57.40
2023-01-27T05:06:47.328Z,55.27
2023-01-27T05:09:14.610Z,48.47
2023-01-27T05:11:41.621Z,40.70
2023-01-27T05:14:08.823Z,43.67
2023-01-27T05:16:35.928Z,41.67
2023-01-27T05:19:03.362Z,37.37
2023-01-27T05:21:31.127Z,36.57
2023-01-27T05:23:58.424Z,40.23
2023-01-27T05:26:27.715Z,41.00
2023-01-27T05:28:57.498Z,38.77
2023-01-27T05:31:29.586Z,40.77
2023-01-27T05:33:59.148Z,43.50
2023-01-27T05:36:26.738Z,39.40
2023-01-27T05:38:54.974Z,41.73
2023-01-27T05:41:22.306Z,46.80
2023-01-27T05:43:54.471Z,44.67
2023-01-27T05:46:24.536Z,41.20
2023-01-27T05:48:53.975Z,54.10
2023-01-27T05:51:23.158Z,55.93
2023-01-27T05:53:50.709Z,51.00
2023-01-27T05:56:19.348Z,47.47
2023-01-27T05:58:46.605Z,47.93
2023-01-27T06:01:19.252Z,48.70
2023-01-27T06:03:47.061Z,39.70
2023-01-27T06:06:15.823Z,53.80
2023-01-27T06:08:43.184Z,90.20
2023-01-27T06:11:10.289Z,104.30
2023-01-27T06:13:39.143Z,94.63
2023-01-27T06:16:09.518Z,79.00
2023-01-27T06:18:37.630Z,80.07
2023-01-27T06:21:08.479Z,70.00
2023-01-27T06:23:36.077Z,86.33
2023-01-27T06:26:23.259Z,71.57
2023-01-27T06:28:50.494Z,56.67
2023-01-27T06:31:20.976Z,50.73
2023-01-27T06:33:48.446Z,50.00
2023-01-27T06:36:17.811Z,48.73
2023-01-27T06:38:45.577Z,54.67
2023-01-27T06:41:12.611Z,58.87
2023-01-27T06:43:39.917Z,65.63
2023-01-27T06:46:06.924Z,45.37
2023-01-27T06:48:34.525Z,42.63
2023-01-27T06:51:01.659Z,37.40
2023-01-27T06:53:29.298Z,35.77
2023-01-27T06:55:58.093Z,42.53
2023-01-27T06:58:25.793Z,40.87
2023-01-27T07:00:53.746Z,49.80
2023-01-27T07:03:21.242Z,48.73
2023-01-27T07:05:48.223Z,45.97
2023-01-27T07:08:15.532Z,56.47
2023-01-27T07:10:42.513Z,70.67
2023-01-27T07:13:11.778Z,76.87
2023-01-27T07:15:39.155Z,75.37
2023-01-27T07:18:06.847Z,73.03
2023-01-27T07:20:33.881Z,77.83
2023-01-27T07:23:03.411Z,81.17
2023-01-27T07:25:31.886Z,65.13
2023-01-27T07:28:00.139Z,84.70
2023-01-27T07:30:28.150Z,102.70
2023-01-27T07:32:55.653Z,109.47
2023-01-27T07:35:23.676Z,73.17
2023-01-27T07:37:50.905Z,59.90
2023-01-27T07:40:18.565Z,65.90
2023-01-27T07:42:45.757Z,64.77
2023-01-27T07:45:12.789Z,49.17
2023-01-27T07:47:40.137Z,37.87
2023-01-27T07:50:08.106Z,38.60
2023-01-27T07:52:35.406Z,38.67
2023-01-27T07:55:02.315Z,37.70
2023-01-27T07:57:29.656Z,38.70
2023-01-27T07:59:56.796Z,36.83
2023-01-27T08:02:24.466Z,35.40
2023-01-27T08:04:53.534Z,37.00
2023-01-27T08:07:21.413Z,33.00
2023-01-27T08:09:48.783Z,36.07
2023-01-27T08:12:16.072Z,53.60
2023-01-27T08:14:43.102Z,52.67
2023-01-27T08:17:10.422Z,50.43
2023-01-27T08:19:37.398Z,50.43
2023-01-27T08:22:04.763Z,29.10
2023-01-27T08:24:31.814Z,32.33
2023-01-27T08:26:59.076Z,35.20
2023-01-27T08:29:26.052Z,39.73
2023-01-27T08:31:53.275Z,39.20
2023-01-27T08:34:20.257Z,42.83
2023-01-27T08:36:47.514Z,32.47
2023-01-27T08:39:14.421Z,45.93
2023-01-27T08:41:41.688Z,167.27
2023-01-27T08:44:08.622Z,31.53
2023-01-27T08:46:35.996Z,29.73
2023-01-27T08:49:03.044Z,27.27
2023-01-27T08:51:30.638Z,26.63
2023-01-27T08:53:57.830Z,26.93
2023-01-27T08:56:25.197Z,28.97
2023-01-27T08:58:52.549Z,29.90
2023-01-27T09:01:20.750Z,22.73
2023-01-27T09:03:47.925Z,27.37
2023-01-27T09:06:16.253Z,31.93
2023-01-27T09:08:44.179Z,25.23
2023-01-27T09:11:14.828Z,20.37
2023-01-27T09:13:42.190Z,33.40
2023-01-27T09:16:09.900Z,28.23
2023-01-27T09:18:37.111Z,21.10
2023-01-27T09:21:05.368Z,18.37
2023-01-27T09:23:33.512Z,22.40
2023-01-27T09:26:00.788Z,22.17
2023-01-27T09:28:27.866Z,22.43
2023-01-27T09:30:58.967Z,23.93
2023-01-27T09:33:26.725Z,28.93
2023-01-27T09:36:14.805Z,23.97
2023-01-27T09:38:44.323Z,21.17
2023-01-27T09:41:43.000Z,20.33
2023-01-27T09:44:23.138Z,20.53
2023-01-27T09:47:31.069Z,19.60
2023-01-27T09:50:35.471Z,28.03
2023-01-27T09:53:05.639Z,25.50
2023-01-27T09:55:52.884Z,22.80
2023-01-27T09:58:41.932Z,23.70
2023-01-27T10:01:38.791Z,28.27
2023-01-27T10:04:21.004Z,26.67
2023-01-27T10:06:52.008Z,25.93
2023-01-27T10:09:49.712Z,23.87
2023-01-27T10:12:16.672Z,23.27
2023-01-27T10:14:58.303Z,25.73
2023-01-27T10:17:35.056Z,27.40
2023-01-27T10:20:21.100Z,29.47
2023-01-27T10:23:25.409Z,25.07
2023-01-27T10:26:17.117Z,29.53
2023-01-27T10:28:50.719Z,25.63
2023-01-27T10:31:27.048Z,29.23
2023-01-27T10:33:56.323Z,27.60
2023-01-27T10:36:30.086Z,24.60
2023-01-27T10:39:15.293Z,22.70
2023-01-27T10:41:54.625Z,24.87
2023-01-27T10:45:02.056Z,26.40
2023-01-27T10:47:36.905Z,24.77
2023-01-27T10:50:21.768Z,24.80
2023-01-27T10:52:56.551Z,25.70
2023-01-27T10:55:27.358Z,20.17
2023-01-27T10:58:01.285Z,22.70
2023-01-27T11:00:57.812Z,23.23
2023-01-27T11:03:26.573Z,27.27
2023-01-27T11:06:05.041Z,27.53
2023-01-27T11:08:37.877Z,23.30
2023-01-27T11:11:25.945Z,21.93
2023-01-27T11:14:04.735Z,22.10
2023-01-27T11:16:35.845Z,19.57
2023-01-27T11:19:37.505Z,21.73
2023-01-27T11:22:09.417Z,23.03
2023-01-27T11:25:02.411Z,21.67
2023-01-27T11:27:51.027Z,23.17
2023-01-27T11:30:24.429Z,21.40
2023-01-27T11:32:59.872Z,23.00
2023-01-27T11:35:27.275Z,19.07
2023-01-27T11:38:06.347Z,17.23
2023-01-27T11:40:42.667Z,22.60
2023-01-27T11:43:15.558Z,20.90
2023-01-27T11:45:45.238Z,21.17
2023-01-27T11:48:15.149Z,20.17
2023-01-27T11:50:43.449Z,19.80
2023-01-27T11:53:36.882Z,20.60
2023-01-27T11:56:07.662Z,17.03
2023-01-27T11:58:41.328Z,19.20
2023-01-27T12:01:19.850Z,21.00
2023-01-27T12:03:46.845Z,17.67
2023-01-27T12:06:19.442Z,16.87
2023-01-27T12:08:49.650Z,22.07
2023-01-27T12:11:28.582Z,19.40
2023-01-27T12:13:58.384Z,19.70
2023-01-27T12:16:42.838Z,21.80
2023-01-27T12:19:32.389Z,28.83
2023-01-27T12:22:01.812Z,17.70
2023-01-27T12:24:34.963Z,42.63
2023-01-27T12:27:04.501Z,17.40
2023-01-27T12:29:44.043Z,21.30
2023-01-27T12:32:22.524Z,118.50
2023-01-27T12:34:52.434Z,24.67
2023-01-27T12:37:29.102Z,15.63
2023-01-27T12:40:02.680Z,21.37
2023-01-27T12:43:02.331Z,14.13
2023-01-27T12:45:38.289Z,17.43
2023-01-27T12:48:14.858Z,18.17
2023-01-27T12:50:46.283Z,93.43
2023-01-27T12:53:18.730Z,19.63
2023-01-27T12:56:07.371Z,14.60
2023-01-27T12:58:41.994Z,16.83
2023-01-27T13:01:37.784Z,16.43
2023-01-27T13:04:16.860Z,17.23
2023-01-27T13:06:44.868Z,20.17
2023-01-27T13:09:35.751Z,20.33
2023-01-27T13:12:12.884Z,19.07
2023-01-27T13:14:42.028Z,16.57
2023-01-27T13:17:48.219Z,20.97
2023-01-27T13:20:41.845Z,17.00
2023-01-27T13:23:19.411Z,18.67
2023-01-27T13:25:49.473Z,24.37
2023-01-27T13:28:20.800Z,18.03
2023-01-27T13:30:52.615Z,15.00
2023-01-27T13:33:42.633Z,21.47
2023-01-27T13:36:28.044Z,24.67
2023-01-27T13:39:00.716Z,15.10
2023-01-27T13:41:43.640Z,16.90
2023-01-27T13:44:29.278Z,18.80
2023-01-27T13:47:03.476Z,15.53
2023-01-27T13:49:41.521Z,15.27
2023-01-27T13:52:10.292Z,16.87
2023-01-27T13:54:37.396Z,15.70
2023-01-27T13:57:04.703Z,17.10
2023-01-27T13:59:31.606Z,18.57
2023-01-27T14:02:26.747Z,16.53
2023-01-27T14:05:15.697Z,19.83
2023-01-27T14:07:52.742Z,15.97
2023-01-27T14:10:25.855Z,16.20
2023-01-27T14:13:14.198Z,15.87
2023-01-27T14:15:55.740Z,13.87
2023-01-27T14:18:27.652Z,14.20
2023-01-27T14:21:34.685Z,13.97
2023-01-27T14:24:10.027Z,14.30
2023-01-27T14:27:06.114Z,13.60
2023-01-27T14:29:51.417Z,11.60
2023-01-27T14:32:26.593Z,13.83
2023-01-27T14:35:16.869Z,11.10
2023-01-27T14:38:07.102Z,14.50
2023-01-27T14:40:46.097Z,12.80
2023-01-27T14:43:18.902Z,12.90
2023-01-27T14:46:16.765Z,12.50
2023-01-27T14:48:50.766Z,12.50
2023-01-27T14:51:26.964Z,12.03
2023-01-27T14:53:56.913Z,12.97
2023-01-27T14:56:45.906Z,12.77
2023-01-27T14:59:39.106Z,17.97
2023-01-27T15:02:06.416Z,15.73
2023-01-27T15:04:44.357Z,12.33
2023-01-27T15:07:32.919Z,13.77
2023-01-27T15:10:06.390Z,20.73
2023-01-27T15:12:48.095Z,27.23
2023-01-27T15:15:33.425Z,26.90
2023-01-27T15:18:37.911Z,23.17
2023-01-27T15:21:10.637Z,20.70
2023-01-27T15:23:52.651Z,25.63
2023-01-27T15:26:23.708Z,24.03
2023-01-27T15:28:51.622Z,18.53
2023-01-27T15:31:18.596Z,23.73
2023-01-27T15:33:51.607Z,18.10
2023-01-27T15:36:27.752Z,17.80
2023-01-27T15:39:10.546Z,19.07
2023-01-27T15:42:03.780Z,20.77
2023-01-27T15:44:33.518Z,19.40
2023-01-27T15:47:13.587Z,22.00
2023-01-27T15:49:45.719Z,25.57
2023-01-27T15:52:42.891Z,29.50
2023-01-27T15:55:29.603Z,26.60
2023-01-27T15:58:11.918Z,25.07
2023-01-27T16:00:42.416Z,23.03
2023-01-27T16:03:21.663Z,26.67
2023-01-27T16:05:52.317Z,27.20
2023-01-27T16:08:20.076Z,27.00
2023-01-27T16:10:47.363Z,26.33
2023-01-27T16:13:28.979Z,31.13
2023-01-27T16:16:19.234Z,24.70
2023-01-27T16:19:05.288Z,20.93
2023-01-27T16:21:41.428Z,28.20
2023-01-27T16:24:17.659Z,27.23
2023-01-27T16:27:14.415Z,37.23
2023-01-27T16:29:53.247Z,31.10
2023-01-27T16:32:22.596Z,58.40
2023-01-27T16:34:52.950Z,16.07
2023-01-27T16:37:27.084Z,16.13
2023-01-27T16:40:06.962Z,14.73
2023-01-27T16:42:45.948Z,14.23
2023-01-27T16:45:39.058Z,11.10
2023-01-27T16:48:21.325Z,13.03
2023-01-27T16:50:49.127Z,13.13
2023-01-27T16:53:21.602Z,12.17
2023-01-27T16:56:04.491Z,12.53
2023-01-27T16:58:45.834Z,10.83
2023-01-27T17:01:43.451Z,11.50
2023-01-27T17:04:20.358Z,13.13
2023-01-27T17:06:52.394Z,16.70
2023-01-27T17:09:28.355Z,10.90
2023-01-27T17:11:55.781Z,12.23
2023-01-27T17:14:49.244Z,11.97
2023-01-27T17:17:18.661Z,12.57
2023-01-27T17:19:50.639Z,16.70
2023-01-27T17:22:22.986Z,14.30
2023-01-27T17:24:55.749Z,13.07
2023-01-27T17:27:34.986Z,14.47
2023-01-27T17:30:14.512Z,12.77
2023-01-27T17:32:46.688Z,14.43
2023-01-27T17:35:25.418Z,24.47
2023-01-27T17:37:53.244Z,31.30
2023-01-27T17:40:22.300Z,36.87
2023-01-27T17:42:49.758Z,30.53
2023-01-27T17:45:21.887Z,21.30
2023-01-27T17:47:49.506Z,32.20
2023-01-27T17:50:34.807Z,34.73
2023-01-27T17:53:04.901Z,33.87
2023-01-27T17:55:32.308Z,27.00
2023-01-27T17:58:07.471Z,22.40
2023-01-27T18:00:40.141Z,20.10
2023-01-27T18:03:21.814Z,16.37
2023-01-27T18:05:52.906Z,15.27
2023-01-27T18:08:20.606Z,22.53
2023-01-27T18:10:48.001Z,29.67
2023-01-27T18:13:17.915Z,47.77
2023-01-27T18:15:58.985Z,23.20
2023-01-27T18:18:27.377Z,21.07
2023-01-27T18:20:57.402Z,18.57
2023-01-27T18:23:27.815Z,23.73
2023-01-27T18:26:02.637Z,25.67
2023-01-27T18:28:34.193Z,27.90
2023-01-27T18:31:02.021Z,32.70
2023-01-27T18:33:29.214Z,36.97
2023-01-27T18:36:00.794Z,108.93
2023-01-27T18:38:33.638Z,213.63
2023-01-27T18:41:17.814Z,302.13
2023-01-27T18:43:44.766Z,285.13
2023-01-27T18:46:12.069Z,191.97
2023-01-27T18:48:40.210Z,198.37
2023-01-27T18:51:16.721Z,124.83
2023-01-27T18:53:43.915Z,82.73
2023-01-27T18:56:11.536Z,72.40
2023-01-27T18:58:39.338Z,46.87
2023-01-27T19:01:14.805Z,54.77
2023-01-27T19:03:42.148Z,73.70
2023-01-27T19:06:16.411Z,88.67
2023-01-27T19:08:44.192Z,65.13
2023-01-27T19:11:15.269Z,82.07
2023-01-27T19:13:44.542Z,72.07
2023-01-27T19:16:16.684Z,74.27
2023-01-27T19:18:44.985Z,107.50
2023-01-27T19:21:16.135Z,117.83
2023-01-27T19:23:44.829Z,113.03
2023-01-27T19:26:20.465Z,52.53
2023-01-27T19:28:50.405Z,36.60
2023-01-27T19:31:18.113Z,39.13
2023-01-27T19:33:45.564Z,39.47
2023-01-27T19:36:33.032Z,47.73
2023-01-27T19:39:06.464Z,40.37
2023-01-27T19:41:34.366Z,37.07
2023-01-27T19:44:01.410Z,40.37
2023-01-27T19:46:28.809Z,41.73
2023-01-27T19:48:55.909Z,48.50
2023-01-27T19:51:24.176Z,52.83
2023-01-27T19:53:51.139Z,51.90
2023-01-27T19:56:23.200Z,62.77
2023-01-27T19:58:52.822Z,50.93
2023-01-27T20:01:22.450Z,52.17
2023-01-27T20:03:50.075Z,47.70
2023-01-27T20:06:26.887Z,46.87
2023-01-27T20:08:55.610Z,67.50
2023-01-27T20:11:42.015Z,46.53
2023-01-27T20:14:14.571Z,33.27
2023-01-27T20:16:42.963Z,27.70
2023-01-27T20:19:13.235Z,29.67
2023-01-27T20:21:41.821Z,27.43
2023-01-27T20:24:16.702Z,31.60
2023-01-27T20:26:44.248Z,33.83
2023-01-27T20:29:11.381Z,39.93
2023-01-27T20:31:39.621Z,40.70
2023-01-27T20:34:07.131Z,40.60
2023-01-27T20:36:34.935Z,42.33
2023-01-27T20:39:02.081Z,46.40
2023-01-27T20:41:29.685Z,64.07
2023-01-27T20:44:00.341Z,48.70
2023-01-27T20:46:29.000Z,30.23
2023-01-27T20:48:56.677Z,35.77
2023-01-27T20:51:24.159Z,40.33
2023-01-27T20:53:51.111Z,35.20
2023-01-27T20:56:21.243Z,36.60
2023-01-27T20:58:48.931Z,31.73
2023-01-27T21:01:21.925Z,32.70
2023-01-27T21:03:50.402Z,29.67
2023-01-27T21:06:19.944Z,28.40
2023-01-27T21:08:50.406Z,32.53
2023-01-27T21:11:20.129Z,31.87
2023-01-27T21:13:48.477Z,42.97
2023-01-27T21:16:15.770Z,32.57
2023-01-27T21:18:44.072Z,32.73
2023-01-27T21:21:30.908Z,36.50
2023-01-27T21:24:00.214Z,33.50
2023-01-27T21:26:28.370Z,33.83
2023-01-27T21:28:56.351Z,34.77
2023-01-27T21:31:30.275Z,33.57
2023-01-27T21:33:59.436Z,36.17
2023-01-27T21:36:26.957Z,35.30
2023-01-27T21:38:54.098Z,36.13
2023-01-27T21:41:41.509Z,34.73
2023-01-27T21:44:41.776Z,43.73
2023-01-27T21:47:11.960Z,40.90
2023-01-27T21:49:59.975Z,41.47
2023-01-27T21:52:39.501Z,44.17
2023-01-27T21:55:14.776Z,39.37
2023-01-27T21:57:43.365Z,43.87
2023-01-27T22:00:11.935Z,51.03
2023-01-27T22:02:39.326Z,41.60
2023-01-27T22:05:07.140Z,38.17
2023-01-27T22:07:38.239Z,40.83
2023-01-27T22:10:07.500Z,47.93
2023-01-27T22:12:34.745Z,40.97
2023-01-27T22:15:01.754Z,44.50
2023-01-27T22:17:29.061Z,43.87
2023-01-27T22:19:56.005Z,45.33
2023-01-27T22:22:23.240Z,36.13
2023-01-27T22:24:50.161Z,42.77
2023-01-27T22:27:17.404Z,45.67
2023-01-27T22:29:44.324Z,42.90
2023-01-27T22:32:11.716Z,41.20
2023-01-27T22:34:38.660Z,40.93
2023-01-27T22:37:05.983Z,43.90
2023-01-27T22:39:33.216Z,43.00
2023-01-27T22:42:00.462Z,41.63
2023-01-27T22:44:27.437Z,41.07
2023-01-27T22:46:54.656Z,42.77
2023-01-27T22:49:21.590Z,45.63
2023-01-27T22:51:48.977Z,43.43
2023-01-27T22:54:15.965Z,42.67
2023-01-27T22:56:43.347Z,42.13
2023-01-27T22:59:13.497Z,42.77
2023-01-27T23:01:40.849Z,45.40
2023-01-27T23:04:07.846Z,38.17
2023-01-27T23:06:35.145Z,47.70
2023-01-27T23:09:02.057Z,42.20
2023-01-27T23:11:29.314Z,39.87
2023-01-27T23:13:56.337Z,43.10
2023-01-27T23:16:23.630Z,41.13
2023-01-27T23:18:50.751Z,39.40
2023-01-27T23:21:18.080Z,32.47
2023-01-27T23:23:45.019Z,40.43
2023-01-27T23:26:13.435Z,39.03
2023-01-27T23:28:40.524Z,35.67
2023-01-27T23:31:13.454Z,35.60
2023-01-27T23:33:41.992Z,34.63
2023-01-27T23:36:10.429Z,37.00
2023-01-27T23:38:37.772Z,34.50
2023-01-27T23:41:13.670Z,37.50
2023-01-27T23:43:40.745Z,37.27
2023-01-27T23:46:08.041Z,37.83
2023-01-27T23:48:35.252Z,36.40
2023-01-27T23:51:07.369Z,37.63
2023-01-27T23:53:34.288Z,37.87
2023-01-27T23:56:01.770Z,34.50
2023-01-27T23:58:28.753Z,40.77
